CYLT

Alert Airport

Alert, Canada
METAR CYLT 172300Z 09006KT 15SM FEW023 FEW080 04/01 A2979 RMK SC1AC2 SLP092
Observed Flight Rules
Jul-17 @ 23:00 UTC (22 minutes ago) Visual Flight Rules
Wind Visibility Clouds
90° at 6 knots 15 miles
  • Few at 2,300' AGL
  • Few at 8,000' AGL
Temperatures Readings
Current 4°C / 39°F
Dewpoint 1°C / 34°F
Humidity 81%
Altimeter 29.79" Hg
Pressure 1009.2 hPa
Elevation 31
METAR CYLT 172300Z 09006KT 15SM FEW023 FEW080 04/01 A2979 RMK SC1AC2 SLP092
Observed Flight Rules
Jul-17 @ 23:00 UTC
(22 minutes ago)
VFR
Wind Visibility
90° at 6 knots 15 miles
Clouds
  • Few at 2,300' AGL
  • Few at 8,000' AGL
Temperature Dewpoint
4°C / 39°F 1°C / 34°F
Humidity Altimeter Pressure
81% 29.79" Hg 1009.2 hPa